McKean County Weather on FaceBook
Current Metar reports for airports in our Region

Nearby METAR Reports

Metar reports(Meteorological Terminal Aviation Routine) are mainly used by pilots for information on what is happening at their destination during their pre-flight weather briefings and by meteorologists to assist in short term forecasts. A raw Metar is one of the most universal ways to communicate weather information in the world and are usually transmitted by airports, but some come from permanent sanctioned weather observatories.

Listed below are Metars from airports within 100 miles of our station here in Smethport Pa. The first one of course is the Bradford Regional Airport, then the Olean NY airport and so on. Each airport has it's own table to display it's data and at the bottom of the table is 'Raw' Metar for each airport. Most pilots and weather forecasters can look at the raw data and tell you what is up, but we use a script that handles all of the details for us.

KBFD - Bradford, Pennsylvania, USA
Distance from station: NW 7mi, 11km
Updated: Mon, 21-Oct-2019 12:20am EDT
Mist, Clear
Mist, Clear
 Wind from calm
Wind: Calm
Temperature: 43°F , 6°C
Dew Point: 39°F , 4°C
Humidity: 87%
Barometer: 30.02 inHg , 1016.6 hPa
Summary: Mist
Clouds: Clear
Visibility: 4 miles , 6 km
2019/10/21 04:20 KBFD 210420Z AUTO 00000KT 4SM BR CLR 06/04 A3002 RMK AO2 T00560039 $
KOLE - Olean, New York, USA
Distance from station: NNE 37mi, 59km
Updated: Mon, 21-Oct-2019 12:15am EDT
Clear
Clear
 Wind from SW
Wind: SW 3 mph , 6 km/h
Temperature: 48°F , 9°C
Dew Point: 41°F , 5°C
Humidity: 76%
Barometer: 30.03 inHg , 1016.9 hPa
Clouds: Clear
Visibility: 10 miles , 16 km
2019/10/21 04:15 KOLE 210415Z AUTO 22003KT 10SM CLR 09/05 A3003 RMK AO2
 
KELZ - Wellsville, New York, USA
Distance from station: NE 40mi, 64km
Updated: Sun, 20-Oct-2019 11:56pm EDT
Clear
Clear
 Wind from calm
Wind: Calm
Temperature: 46°F , 8°C
Dew Point: 43°F , 6°C
Humidity: 87%
Barometer: 30.03 inHg , 1016.9 hPa
Clouds: Clear
Visibility: 10 miles , 16 km
2019/10/21 03:56 KELZ 210356Z AUTO 00000KT 10SM CLR 08/06 A3003 RMK AO2 SLP175 T00830061
KDUJ - Du Bois, Pennsylvania, USA
Distance from station: SSW 42mi, 68km
Updated: Sun, 20-Oct-2019 11:53pm EDT
Clear
Clear
 Wind from E
Wind: E 5 mph , 7 km/h
Temperature: 46°F , 8°C
Wind Chill: 44°F , 7°C
Dew Point: 45°F , 7°C
Humidity: 93%
Barometer: 30.01 inHg , 1016.3 hPa
Clouds: Clear
Visibility: 9 miles , 14 km
2019/10/21 03:53 KDUJ 210353Z AUTO 10004KT 9SM CLR 08/07 A3001 RMK AO2 SLP163 T00830072 $
 
KJHW - Jamestown, New York, USA
Distance from station: NW 46mi, 75km
Updated: Sun, 20-Oct-2019 11:56pm EDT
Clear
Clear
 Wind from S
Wind: S 3 mph , 6 km/h
Temperature: 48°F , 9°C
Dew Point: 45°F , 7°C
Humidity: 87%
Barometer: 30.02 inHg , 1016.6 hPa
Clouds: Clear
Visibility: 10 miles , 16 km
2019/10/21 03:56 KJHW 210356Z AUTO 17003KT 10SM CLR 09/07 A3002 RMK AO2 SLP173 T00890067
KFIG - Clearfield, Pennsylvania, USA
Distance from station: S 47mi, 75km
Updated: Sun, 20-Oct-2019 11:54pm EDT
Clear
Clear
 Wind from calm
Wind: Calm
Temperature: 43°F , 6°C
Dew Point: 43°F , 6°C
Humidity: 100%
Barometer: 30.03 inHg , 1016.9 hPa
Clouds: Clear
Visibility: 7 miles , 11 km
2019/10/21 03:54 KFIG 210354Z AUTO 00000KT 7SM CLR 06/06 A3003 RMK AO2 SLP172 T00610056
 
KDKK - Dunkirk, New York, USA
Distance from station: NW 66mi, 106km
Updated: Sun, 20-Oct-2019 11:53pm EDT
Clear
Clear
 Wind from calm
Wind: Calm
Temperature: 45°F , 7°C
Dew Point: 43°F , 6°C
Humidity: 93%
Barometer: 30.00 inHg , 1015.9 hPa
Clouds: Clear
Visibility: 10 miles , 16 km
2019/10/21 03:53 KDKK 210353Z AUTO 00000KT 10SM CLR 07/06 A3000 RMK AO2 SLP159 T00670056 $
KUNV - State College, Pennsylvania, USA
Distance from station: SSE 71mi, 114km
Updated: Mon, 21-Oct-2019 12:19am EDT
Overcast
Overcast
 Wind from calm
Wind: Calm
Temperature: 52°F , 11°C
Dew Point: 48°F , 9°C
Humidity: 88%
Barometer: 30.02 inHg , 1016.6 hPa
Clouds: Overcast
Visibility: 10 miles , 16 km
Cloud details: Overcast 1300 ft
2019/10/21 04:19 KUNV 210419Z AUTO 00000KT 10SM OVC013 11/09 A3002 RMK AO2 T01070092
 
KFKL - Franklin, Pennsylvania, USA
Distance from station: WSW 72mi, 116km
Updated: Sun, 20-Oct-2019 11:56pm EDT
Clear
Clear
 Wind from calm
Wind: Calm
Temperature: 46°F , 8°C
Dew Point: 45°F , 7°C
Humidity: 93%
Barometer: 30.02 inHg , 1016.6 hPa
Clouds: Clear
Visibility: 10 miles , 16 km
2019/10/21 03:56 KFKL 210356Z AUTO 00000KT 10SM CLR 08/07 A3002 RMK AO2 SLP168 T00780072
KDSV - Dansville, New York, USA
Distance from station: NE 73mi, 117km
Updated: Sun, 20-Oct-2019 11:54pm EDT
Clear
Clear
 Wind from SSE
Wind: SSE 3 mph , 6 km/h
Temperature: 46°F , 8°C
Dew Point: 45°F , 7°C
Humidity: 93%
Barometer: 30.02 inHg , 1016.6 hPa
Clouds: Clear
Visibility: 10 miles , 16 km
2019/10/21 03:54 KDSV 210354Z AUTO 16003KT 10SM CLR 08/07 A3002 RMK AO2 SLP176 T00830067
 
KIDI - Indiana/Stewart, Pennsylvania, USA
Distance from station: SSW 81mi, 130km
Updated: Mon, 21-Oct-2019 12:15am EDT
Clear
Clear
 Wind from calm
Wind: Calm
Temperature: 45°F , 7°C
Dew Point: 45°F , 7°C
Humidity: 100%
Barometer: 30.05 inHg , 1017.6 hPa
Clouds: Clear
Visibility: 10 miles , 16 km
2019/10/21 04:15 KIDI 210415Z AUTO 00000KT 10SM CLR 07/07 A3005 RMK A01
KBUF - Buffalo/Cheektow, New York, USA
Distance from station: N 84mi, 136km
Updated: Sun, 20-Oct-2019 11:54pm EDT
Clear
Clear
 Wind from ESE
Wind: ESE 5 mph , 7 km/h
Temperature: 46°F , 8°C
Wind Chill: 44°F , 7°C
Dew Point: 43°F , 6°C
Humidity: 87%
Barometer: 30.00 inHg , 1015.9 hPa
Clouds: Clear
Visibility: 10 miles , 16 km
2019/10/21 03:54 KBUF 210354Z 11004KT 10SM CLR 08/06 A3000 RMK AO2 SLP160 T00830061
 
KGKJ - Meadville, Pennsylvania, USA
Distance from station: W 86mi, 138km
Updated: Sun, 20-Oct-2019 11:53pm EDT
Clear
Clear
 Wind from SSE
Wind: SSE 3 mph , 6 km/h
Temperature: 48°F , 9°C
Dew Point: 45°F , 7°C
Humidity: 87%
Barometer: 30.00 inHg , 1015.9 hPa
Clouds: Clear
Visibility: 10 miles , 16 km
2019/10/21 03:53 KGKJ 210353Z AUTO 15003KT 10SM CLR 09/07 A3000 RMK AO2 SLP160 T00940067 TSNO
KERI - Erie, Pennsylvania, USA
Distance from station: WNW 87mi, 140km
Updated: Sun, 20-Oct-2019 11:51pm EDT
Clear
Clear
 Wind from S
Wind: S 3 mph , 6 km/h
Temperature: 48°F , 9°C
Dew Point: 46°F , 8°C
Humidity: 94%
Barometer: 29.99 inHg , 1015.6 hPa
Clouds: Clear
Visibility: 10 miles , 16 km
2019/10/21 03:51 KERI 210351Z 18003KT 10SM CLR 09/08 A2999 RMK AO2 SLP157 T00940078
 
KELM - Elmira, New York, USA
Distance from station: ENE 90mi, 145km
Updated: Mon, 21-Oct-2019 12:24am EDT
Mist, Mostly cloudy
Mist, Mostly cloudy
 Wind from calm
Wind: Calm
Temperature: 39°F , 4°C
Dew Point: 37°F , 3°C
Humidity: 93%
Barometer: 30.02 inHg , 1016.6 hPa
Summary: Mist
Clouds: Mostly Cloudy
Visibility: 3/4 mile , 1.2 km
Cloud details: Mostly Cloudy 100 ft
2019/10/21 04:24 KELM 210424Z AUTO 00000KT 3/4SM R24/P6000FT BR BKN001 04/03 A3002 RMK AO2 T00440033
KIPT - Williamsport, Pennsylvania, USA
Distance from station: ESE 91mi, 146km
Updated: Mon, 21-Oct-2019 12:23am EDT
Fog, Overcast
Fog, Overcast
 Wind from calm
Wind: Calm
Temperature: 45°F , 7°C
Dew Point: 43°F , 6°C
Humidity: 93%
Barometer: 30.02 inHg , 1016.6 hPa
Summary: Fog
Clouds: Overcast
Visibility: 1/2 mile , 0.8 km
Cloud details: Overcast 400 ft
2019/10/21 04:23 KIPT 210423Z AUTO 00000KT 1/2SM FG VV004 07/06 A3002 RMK AO2 T00670061
 
KBTP - Butler Co., Pennsylvania, USA
Distance from station: SW 98mi, 157km
Updated: Sun, 20-Oct-2019 11:56pm EDT
Clear
Clear
 Wind from NNE
Wind: NNE 3 mph , 6 km/h
Temperature: 46°F , 8°C
Dew Point: 45°F , 7°C
Humidity: 93%
Barometer: 30.01 inHg , 1016.3 hPa
Clouds: Clear
Visibility: 10 miles , 16 km
2019/10/21 03:56 KBTP 210356Z AUTO 03003KT 10SM CLR 08/07 A3001 RMK AO2 SLP170 T00780072
KAOO - Altoona, Pennsylvania, USA
Distance from station: S 99mi, 159km
Updated: Sun, 20-Oct-2019 11:53pm EDT
Overcast
Overcast
 Wind from NE
Wind: NE 3 mph , 6 km/h
Temperature: 52°F , 11°C
Dew Point: 46°F , 8°C
Humidity: 82%
Barometer: 30.02 inHg , 1016.6 hPa
Clouds: Overcast
Visibility: 10 miles , 16 km
Cloud details: Overcast 1000 ft
2019/10/21 03:53 KAOO 210353Z AUTO 05003KT 10SM OVC010 11/08 A3002 RMK AO2 SLP169 T01110083 $
 
KPIT - Pittsburg, Pennsylvania, USA
Distance from station: SSW 126mi, 203km
Updated: Sun, 20-Oct-2019 11:51pm EDT
Clear
Clear
 Wind from WNW
Wind: WNW 3 mph , 6 km/h
Temperature: 48°F , 9°C
Dew Point: 45°F , 7°C
Humidity: 87%
Barometer: 29.99 inHg , 1015.6 hPa
Clouds: Clear
Visibility: 10 miles , 16 km
2019/10/21 03:51 KPIT 210351Z 30003KT 10SM CLR 09/07 A2999 RMK AO2 SLP164 T00940072
KCLE - Cleveland, Ohio, USA
Distance from station: WSW 160mi, 258km
Updated: Sun, 20-Oct-2019 11:51pm EDT
Mostly Cloudy
Mostly Cloudy
 Wind from calm
Wind: Calm
Temperature: 57°F , 14°C
Dew Point: 52°F , 11°C
Humidity: 82%
Barometer: 30.00 inHg , 1015.9 hPa
Clouds: Mostly Cloudy
Visibility: 10 miles , 16 km
Cloud details: Mostly Cloudy 6500 ft
2019/10/21 03:51 KCLE 210351Z 00000KT 10SM BKN065 14/11 A3000 RMK AO2 SLP157 T01390106 $